MET: Información y Pronóstico Aeronáutico

///////////////////////////////////////////////////////////////////////////////////////////////////////////////////////////////////////////////////////////////////////////////////////////////////////////////////////////////////////////////

Member for

2 años 2 meses
Enviado por meteorologia el Jue, 23/11/2017 - 11:39
21/9

21 DE SEPTIEMBRE 2020

INFORMACION METEOROLOGICA AERONAUTICA (METAR) 18:00 UTC

Aeropuerto AEROPARQUE J. NEWBERY

21 - 18:00  METAR SABE 211800Z 05006KT 360V080 CAVOK 13/04 Q1024 NOSIG =

Aeropuerto BAHIA BLANCA

21 - 18:00  METAR SAZB 211800Z 36012KT CAVOK 20/M03 Q1021 =

Aeropuerto BARILOCHE

21 - 18:00  METAR SAZS 211800Z 31020KT CAVOK 16/M08 Q1014 =

Aeropuerto CATAMARCA

21 - 18:00  METAR SANC 211800Z 36013KT CAVOK 27/M03 Q1017 =

Aeropuerto CHAPELCO

21 - 18:00  METAR SAZY 211800Z 29016KT 240V320 9999 FEW100 19/M12 Q1013 =

Aeropuerto COMODORO RIVADAVIA

21 - 18:00  METAR SAVC 211800Z 29018KT CAVOK 21/M04 Q1007 =

Aeropuerto CORDOBA

21 - 18:00  METAR SACO 211800Z 03015KT CAVOK 23/M07 Q1021 NOSIG =

Aeropuerto CORRIENTES

21 - 18:00  METAR SARC 211800Z 14013KT 8000 NSC 24/01 Q1021 =

Aeropuerto EL CALAFATE

21 - 18:00  METAR SAWC 211800Z 09001KT 9999 BKN070 10/00 Q1001 =

Aeropuerto EL PALOMAR

21 - 18:00  METAR SADP 211800Z 24003KT CAVOK 17/M02 Q1024 =

Aeropuerto ESQUEL

21 - 18:00  METAR SAVE 211800Z 25015G30KT 210V320 CAVOK 15/M09 Q1012 =

Aeropuerto EZEIZA

21 - 18:00  METAR SAEZ 211700Z VRB03KT CAVOK 15/02 Q1024 NOSIG =

Aeropuerto FORMOSA

21 - 18:00  METAR SARF 211800Z 18016KT CAVOK 24/01 Q1020 =

Aeropuerto IGUAZU/CATARATAS

21 - 18:00  METAR SARI 211800Z 23008KT CAVOK 26/12 Q1017 =

Aeropuerto JUJUY

21 - 18:00  METAR SASJ 211800Z 07007KT 9999 FEW030 24/M02 Q1021 =

Aeropuerto LA RIOJA

21 - 18:00  METAR SANL 211800Z 16004KT CAVOK 26/02 Q1018 =

Aeropuerto MALARGUE

21 - 18:00  METAR SAMM 211800Z 05006KT CAVOK 20/M05 Q1018 =

Aeropuerto MAR DEL PLATA

21 - 18:00  METAR SAZM 211800Z 15011KT CAVOK 11/04 Q1023 =

Aeropuerto MENDOZA

21 - 18:00  METAR SAME 211700Z 36011G21KT CAVOK 24/M09 Q1018 =

Aeropuerto MORON

21 - 18:00  METAR SADM 211800Z 09004KT CAVOK 17/M01 Q1023 =

Aeropuerto NEUQUEN

21 - 18:00  METAR SAZN 211800Z 36004KT CAVOK 19/03 Q1015 =

Aeropuerto PARANA

21 - 18:00  METAR SAAP 211800Z 05002KT CAVOK 22/M03 Q1023 =

Aeropuerto POSADAS

21 - 18:00  METAR SARP 211800Z 11010KT CAVOK 22/02 Q1020 =

Aeropuerto PUERTO MADRYN

21 - 18:00  METAR SAVY 211800Z 32023G36KT CAVOK 19/M07 Q1011 =

Aeropuerto RECONQUISTA

21 - 18:00  METAR SATR 211800Z 11008KT CAVOK 23/M01 Q1021 =

Aeropuerto RESISTENCIA

21 - 18:00  METAR SARE 211800Z 11009KT 080V160 8000 NSC 25/M06 Q1021 =

Aeropuerto RIO CUARTO

21 - 18:00  METAR SAOC 211800Z 02023G34KT CAVOK 24/M07 Q1019 =

Aeropuerto RIO GALLEGOS

21 - 18:00  METAR SAWG 211800Z 27009KT CAVOK 11/M02 Q0999 =

Aeropuerto RIO GRANDE

21 - 18:00  METAR SAWE 211800Z 05008KT 9999 BKN016 08/04 Q1000 =

Aeropuerto ROSARIO

21 - 18:00  METAR SAAR 211800Z 09006KT CAVOK 22/M03 Q1022 =

Aeropuerto SALTA

21 - 18:00  METAR SASA 211800Z 05009KT CAVOK 23/M03 Q1021 =

Aeropuerto SAN FERNANDO

21 - 18:00  METAR SADF 211800Z 07008KT CAVOK 16/06 Q1024 =

Aeropuerto SAN JUAN

21 - 18:00  METAR SANU 211800Z 02008KT CAVOK 26/M08 Q1016 =

Aeropuerto SAN LUIS

21 - 18:00  METAR SAOU 211800Z 32010KT CAVOK 24/M00 Q1018 RMK ESTIMATED WIND =

Aeropuerto SAN RAFAEL

21 - 18:00  METAR SAMR 211800Z 36014KT CAVOK 24/M11 Q1016 =

Aeropuerto SANTA ROSA

21 - 18:00  METAR SAZR 211800Z 36017G27KT CAVOK 22/01 Q1019 =

Aeropuerto SANTIAGO DEL ESTERO

21 - 18:00  METAR SANE 211800Z 05006KT 8000 NSC 25/M04 Q1020 =

Aeropuerto SAUCE VIEJO

21 - 18:00  METAR SAAV 211800Z 14005KT CAVOK 23/00 Q1022 =

Aeropuerto TANDIL

21 - 18:00  METAR SAZT 211800Z 27004KT CAVOK 16/M00 Q1022 =

Aeropuerto TERMAS DE RIO HONDO

21 - 18:00  METAR SANR 211800Z 36010KT CAVOK 26/M06 Q1019 =

Aeropuerto TRELEW

21 - 18:00  METAR SAVT 211800Z 34020G32KT CAVOK 22/M14 Q1010 =

Aeropuerto TUCUMAN

21 - 18:00  METAR SANT 211800Z 09010KT 6000 NSC 25/03 Q1019 =

Aeropuerto USHUAIA

21 - 18:00  METAR SAWH 211800Z 18003KT 9999 SCT040 BKN080 07/02 Q0998 =

Aeropuerto VIEDMA

21 - 18:00  METAR SAVV 211800Z 34012G22KT 320V050 CAVOK 20/M02 Q1018 =

Aeropuerto VILLA REYNOLDS

21 - 18:00  METAR SAOR 211800Z 36013KT CAVOK 26/M04 Q1018 =

 PRONOSTICO DE AERODROMO (TAF) 17:00 UTC

Estación AEROPARQUE J. NEWBERY

21 - 17:00  TAF SABE 211700Z 2118/2218 05010KT CAVOK TX18/2218Z TN10/2210Z BECMG 2201/2204 02015KT BECMG 2217/2218 02010KT =

Estación BAHIA BLANCA

21 - 17:00  TAF SAZB 211700Z 2118/2218 36010KT CAVOK TX22/2218Z TN09/2210Z BECMG 2203/2206 36015G25KT BECMG 2206/2209 36020G32KT BECMG 2212/2215 27012KT =

Estación BARILOCHE

21 - 17:00  TAF SAZS 211700Z 2118/2218 32015G25KT CAVOK TX17/2119Z TN01/2210Z BECMG 2123/2201 29015KT 9999 SCT045 BKN100 BECMG 2204/2206 29010KT 9999 BKN035 BECMG 2212/2214 29015KT 9999 BKN020 BECMG 2216/2218 29020KT =

Estación CATAMARCA

21 - 17:00  TAF SANC 211700Z 2118/2218 36025KT CAVOK TX28/2118Z TN08/2210Z BECMG 2123/2202 02015KT =

Estación CHAPELCO

21 - 17:00  TAF SAZY 211700Z 2118/2218 27010KT CAVOK TX18/2118Z TN00/2211Z TEMPO 2118/2122 27015G25KT BECMG 2200/2203 SCT010 BECMG 2203/2206 27005KT 6000 BKN008 PROB30 TEMPO 2206/2212 2000 BR BKN003 BECMG 2213/2215 27010KT 9999 SCT015 BECMG 2215/2217 CAVOK =

Estación COMODORO RIVADAVIA

21 - 17:00  TAF SAVC 211700Z 2118/2218 36005KT CAVOK TX23/2119Z TN08/2210Z BECMG 2120/2123 27015G25KT BECMG 2201/2203 28020G35KT =

Estación CORDOBA

21 - 17:00  TAF SACO 211700Z 2118/2218 36015G25KT CAVOK TX26/2218Z TN06/2210Z BECMG 2122/2201 02010KT BECMG 2212/2215 05020KT =

Estación CORRIENTES

21 - 17:00  TAF SARC 211700Z 2118/2218 14010KT CAVOK TX26/2218Z TN08/2210Z PROB40 2208/2211 VRB03KT 1500 BR NSC =

Estación EL CALAFATE

21 - 17:00  TAF SAWC 211700Z 2118/2218 VRB03KT CAVOK TX11/2118Z TN01/2210Z BECMG 2118/2121 25010KT BECMG 2123/2201 02010KT BECMG 2203/2205 23010KT 9999 RASN BKN020 BECMG 2210/2212 27010G20KT 9999 NSW SCT030 =

Estación EL PALOMAR

21 - 17:00  TAF SADP 211700Z 2118/2218 03005KT CAVOK TX20/2218Z TN05/2210Z BECMG 2122/2201 05010KT =

Estación ESQUEL

21 - 17:00  TAF SAVE 211700Z 2118/2218 28015G30KT CAVOK TX17/2118Z TN05/2210Z BECMG 2201/2204 9999 SCT025 BKN040 PROB30 TEMPO 2208/2211 7000 -RADZ SCT010 =

Estación EZEIZA

21 - 17:00  TAF SAEZ 211700Z 2118/2218 03005KT CAVOK TX20/2218Z TN05/2210Z BECMG 2122/2201 05010KT =

Estación FORMOSA

21 - 17:00  TAF SARF 211700Z 2118/2218 14010KT CAVOK TX26/2218Z TN10/2210Z PROB40 2208/2211 00000KT 0500 FG NSC =

Estación IGUAZU/CATARATAS

21 - 17:00  TAF SARI 211700Z 2118/2218 18005KT CAVOK TX26/2218Z TN13/2210Z PROB40 2208/2211 0500 FG NSC BECMG 2213/2215 9999 SCT025 FEW045TCU =

Estación JUJUY

21 - 17:00  TAF SASJ 211700Z 2118/2218 VRB03KT 9999 SCT025 TX24/2218Z TN08/2210Z TEMPO 2119/2122 07010KT BECMG 2202/2205 CAVOK =

Estación LA RIOJA

21 - 17:00  TAF SANL 211700Z 2118/2218 23010KT CAVOK TX27/2218Z TN09/2210Z BECMG 2121/2123 VRB03KT =

Estación MAR DEL PLATA

21 - 17:00  TAF SAZM 211700Z 2118/2218 VRB03KT 9999 SCT030 TX18/2218Z TN06/2210Z BECMG 2200/2203 09010KT BECMG 2212/2215 34015G25KT =

Estación MENDOZA

21 - 17:00  TAF SAME 211700Z 2118/2218 36010KT CAVOK TX26/2120Z TN10/2210Z BECMG 2201/2203 18010KT =

Estación NEUQUEN

21 - 17:00  TAF SAZN 211700Z 2118/2218 05010KT CAVOK TX20/2119Z TN11/2210Z BECMG 2120/2122 VRB03KT BECMG 2123/2201 27015KT BECMG 2212/2214 25010KT =

Estación PARANA

21 - 17:00  TAF SAAP 211700Z 2118/2218 07008KT CAVOK TX23/2218Z TN07/2110Z BECMG 2123/2202 02006KT BECMG 2211/2214 05015KT =

Estación POSADAS

21 - 17:00  TAF SARP 211700Z 2118/2218 14010KT CAVOK TX25/2218Z TN09/2210Z =

Estación RESISTENCIA

21 - 17:00  TAF SARE 211700Z 2118/2218 14010KT CAVOK TX26/2218Z TN08/2210Z PROB40 2208/2211 VRB03KT 1500 BR NSC =

Estación RIO CUARTO

21 - 17:00  TAF SAOC 211700Z 2118/2218 02025KT CAVOK TX24/2118Z TN06/2110Z BECMG 2201/2203 02015KT =

Estación RIO GALLEGOS

21 - 17:00  TAF SAWG 211700Z 2118/2218 18007G17KT CAVOK TX14/2118Z TN05/2210Z PROB30 TEMPO 2205/2209 9000 RA BKN020 OVC040 BECMG 2209/2212 25020G30KT CAVOK BECMG 2215/2218 25025G45KT =

Estación RIO GRANDE

21 - 17:00  TAF SAWE 211700Z 2118/2218 02010KT CAVOK TX11/2218Z TN03/2210Z BECMG 2122/2124 27010KT BECMG 2209/2212 9999 BKN025 BECMG 2215/2218 25020G30KT =

Estación ROSARIO

21 - 17:00  TAF SAAR 211700Z 2118/2218 05010KT CAVOK TX24/2218Z TN07/2210Z PROB30 TEMPO 2118/2123 8000 NSC BECMG 2123/2201 09010KT CAVOK BECMG 2214/2216 02015KT =

Estación SALTA

21 - 17:00  TAF SASA 211700Z 2118/2218 36010KT CAVOK TX24/2218Z TN06/2210Z BECMG 2121/2200 23005KT =

Estación SAN FERNANDO

21 - 17:00  TAF SADF 211700Z 2118/2218 05010KT CAVOK TX21/2218Z TN06/2210Z =

Estación SAN JUAN

21 - 17:00  TAF SANU 211700Z 2118/2218 36010KT CAVOK TX27/2120Z TN09/2210Z BECMG 2206/2208 36005KT =

Estación SAN LUIS

21 - 17:00  TAF SAOU 211700Z 2118/2218 34015KT CAVOK TX26/2119Z TN12/2210Z =

Estación SAN RAFAEL

21 - 17:00  TAF SAMR 211700Z 2118/2218 36015KT CAVOK TX26/2120Z TN08/2210Z BECMG 2206/2208 36005KT =

Estación SANTA ROSA

21 - 17:00  TAF SAZR 211700Z 2118/2218 02015KT CAVOK TX25/2218Z TN09/2210Z TEMPO 2118/2121 02015G25KT BECMG 2211/2214 20008KT =

Estación SANTIAGO DEL ESTERO

21 - 17:00  TAF SANE 211700Z 2118/2218 05010KT CAVOK TX26/2218Z TN07/2210Z TEMPO 2207/2210 VRB03KT =

Estación SAUCE VIEJO

21 - 17:00  TAF SAAV 211700Z 2118/2218 07008KT CAVOK TX24/2218Z TN07/2110Z BECMG 2123/2202 02006KT BECMG 2211/2214 05015KT =

Estación TERMAS DE RIO HONDO

21 - 17:00  TAF SANR 211700Z 2118/2218 NIL =

Estación TRELEW

21 - 17:00  TAF SAVT 211700Z 2118/2218 34015G30KT CAVOK TX23/2118Z TN10/2210Z BECMG 2202/2204 25015G25KT =

Estación TUCUMAN

21 - 17:00  TAF SANT 211700Z 2118/2218 VRB03KT 5000 FU NSC TX25/2118Z TN09/2210Z TEMPO 2119/2122 05010KT 8000 SCT025 =

Estación USHUAIA

21 - 17:00  TAF SAWH 211700Z 2118/2218 34005G25KT 9999 SCT040 BKN060 TX09/2119Z TN03/2210Z PROB40 TEMPO 2210/2212 25010KT 6000 -DZ BKN020 =

Estación VIEDMA

21 - 17:00  TAF SAVV 211700Z 2118/2218 36015G25KT CAVOK TX19/2119Z TN08/2110Z BECMG 2203/2206 32020G30KT BECMG 2215/2218 18010G20KT =